Time;durP1;ratioP1;P1;durP2;ratioP2;P2;SDS_P1;SDS_P2;PMS_P1;PMS_P2;Temp;Humidity;BMP_temperature;BMP_pressure;BME280_temperature;BME280_humidity;BME280_pressure;Samples;Min_cycle;Max_cycle;Signal;HPM_P1;HPM_P2
2022/02/27 00:01:41;;;;;;;11.68;4.22;;;4.20;91.60;;;;;;5115488;28;20476;-50
2022/02/27 00:04:08;;;;;;;9.57;3.42;;;4.30;91.70;;;;;;5106117;28;20452;-55
2022/02/27 00:06:35;;;;;;;11.65;3.53;;;4.20;91.70;;;;;;5109424;28;20040;-55
2022/02/27 00:09:02;;;;;;;11.43;3.25;;;4.30;91.70;;;;;;5112442;28;20398;-51
2022/02/27 00:11:29;;;;;;;9.98;3.42;;;4.30;91.70;;;;;;5106948;28;20036;-50
2022/02/27 00:13:55;;;;;;;13.30;3.78;;;4.20;91.80;;;;;;5110932;28;20039;-52
2022/02/27 00:16:22;;;;;;;12.57;3.63;;;4.20;91.80;;;;;;5111334;28;20460;-51
2022/02/27 00:18:49;;;;;;;10.88;3.80;;;4.20;91.90;;;;;;5110005;28;20046;-49
2022/02/27 00:21:16;;;;;;;12.10;4.00;;;4.10;91.90;;;;;;5114602;28;20412;-49
2022/02/27 00:23:43;;;;;;;12.23;3.70;;;4.20;92.00;;;;;;5114136;28;20036;-53
2022/02/27 09:17:35;;;;;;;18.98;3.60;;;4.10;90.90;;;;;;5069968;28;20453;-48
2022/02/27 09:20:02;;;;;;;13.93;4.00;;;4.20;90.80;;;;;;5070033;28;20407;-50
2022/02/27 09:22:29;;;;;;;12.50;4.10;;;4.20;90.60;;;;;;5066667;28;20049;-51
2022/02/27 09:24:55;;;;;;;12.75;3.20;;;4.30;90.40;;;;;;5062159;28;20502;-52
2022/02/27 09:27:22;;;;;;;11.60;3.65;;;4.40;90.40;;;;;;5070032;28;20045;-51
2022/02/27 09:29:51;;;;;;;12.73;3.35;;;4.50;90.20;;;;;;5044539;28;20045;-51
2022/02/27 09:32:18;;;;;;;12.10;3.45;;;4.60;90.20;;;;;;5050457;28;20045;-53
2022/02/27 09:34:44;;;;;;;14.95;3.63;;;4.70;89.50;;;;;;5043985;28;20049;-55
2022/02/27 09:37:11;;;;;;;14.55;2.95;;;4.80;89.00;;;;;;5043861;28;20041;-49
2022/02/27 09:39:38;;;;;;;11.48;2.67;;;4.90;88.30;;;;;;5069498;28;20099;-46
2022/02/27 09:42:05;;;;;;;14.57;4.18;;;5.00;88.00;;;;;;5069523;28;20380;-55
2022/02/27 09:44:32;;;;;;;10.00;3.10;;;5.10;87.70;;;;;;5068372;28;20072;-43
2022/02/27 09:47:00;;;;;;;9.27;2.40;;;5.10;86.80;;;;;;5069412;28;20048;-47
2022/02/27 09:49:27;;;;;;;11.52;2.92;;;5.20;86.60;;;;;;5069288;28;20135;-46
2022/02/27 09:51:55;;;;;;;12.10;3.58;;;5.20;87.00;;;;;;5069331;28;20041;-41
2022/02/27 09:54:22;;;;;;;9.18;2.85;;;5.30;86.20;;;;;;5050596;28;20107;-44
2022/02/27 09:56:49;;;;;;;15.60;3.10;;;5.30;85.00;;;;;;5056967;28;20045;-45
2022/02/27 09:59:16;;;;;;;16.80;3.65;;;5.40;84.90;;;;;;5048643;28;20407;-45
2022/02/27 10:01:43;;;;;;;10.70;2.65;;;5.40;84.90;;;;;;5049975;28;20037;-44
2022/02/27 10:04:10;;;;;;;9.07;2.53;;;5.40;84.70;;;;;;5050048;28;20041;-50
2022/02/27 10:06:36;;;;;;;8.65;2.78;;;5.40;84.50;;;;;;5054371;28;20094;-54
2022/02/27 10:09:03;;;;;;;9.82;2.63;;;5.60;84.70;;;;;;5049581;28;20044;-51
2022/02/27 10:11:30;;;;;;;13.40;3.65;;;5.60;83.40;;;;;;5049661;28;20385;-52
2022/02/27 10:13:57;;;;;;;9.55;2.63;;;5.70;83.70;;;;;;5048681;28;20102;-47
2022/02/27 10:16:24;;;;;;;13.68;3.47;;;5.70;83.30;;;;;;5049163;28;20053;-53
2022/02/27 10:18:53;;;;;;;8.20;2.70;;;5.70;83.40;;;;;;5048550;28;20555;-52
2022/02/27 10:21:19;;;;;;;14.27;2.60;;;5.80;82.90;;;;;;5049303;28;20041;-51
2022/02/27 10:24:07;;;;;;;13.00;2.80;;;5.90;82.00;;;;;;5048954;28;20400;-54
2022/02/27 10:26:34;;;;;;;8.30;2.90;;;6.00;81.20;;;;;;5049394;28;20515;-49
2022/02/27 10:29:03;;;;;;;11.95;2.67;;;6.00;80.70;;;;;;5055104;28;20055;-48
2022/02/27 10:31:29;;;;;;;8.80;3.00;;;6.10;81.10;;;;;;5055360;28;20037;-52
2022/02/27 10:33:56;;;;;;;9.77;2.58;;;6.10;80.60;;;;;;5050801;28;20045;-51
2022/02/27 10:36:23;;;;;;;9.77;2.50;;;6.20;79.80;;;;;;5036219;28;20369;-48
2022/02/27 10:38:55;;;;;;;8.13;3.17;;;6.30;80.20;;;;;;5035920;28;20034;-46
2022/02/27 10:41:22;;;;;;;6.75;2.58;;;6.40;79.80;;;;;;5034769;28;20042;-52
2022/02/27 10:43:48;;;;;;;11.10;2.30;;;6.40;79.40;;;;;;5035888;28;20055;-47
2022/02/27 10:46:15;;;;;;;10.75;3.00;;;6.50;78.30;;;;;;5036113;28;20492;-49
2022/02/27 10:48:42;;;;;;;8.75;2.85;;;6.50;77.50;;;;;;5036080;28;20052;-55
2022/02/27 10:51:09;;;;;;;9.82;2.75;;;6.60;77.90;;;;;;5035768;28;20046;-45
2022/02/27 10:53:36;;;;;;;10.73;2.75;;;6.60;77.00;;;;;;5035073;28;20447;-47
2022/02/27 10:56:03;;;;;;;12.40;2.60;;;6.70;77.30;;;;;;5055018;28;20506;-50
2022/02/27 10:58:29;;;;;;;6.75;2.20;;;6.70;76.30;;;;;;5054846;28;20503;-52
2022/02/27 11:00:56;;;;;;;10.65;3.22;;;6.80;76.50;;;;;;5042127;28;20072;-49
2022/02/27 11:03:23;;;;;;;11.77;2.25;;;6.80;75.70;;;;;;5029139;28;20041;-54
2022/02/27 11:05:50;;;;;;;8.35;2.70;;;6.90;75.60;;;;;;5034998;28;20120;-50
2022/02/27 11:08:17;;;;;;;6.90;2.58;;;7.00;75.00;;;;;;5035740;28;20039;-49
2022/02/27 11:10:44;;;;;;;10.18;2.80;;;7.00;75.50;;;;;;5035443;28;20044;-51
2022/02/27 11:13:12;;;;;;;7.60;2.65;;;7.10;76.50;;;;;;5035171;28;20396;-47
2022/02/27 11:15:39;;;;;;;8.45;2.75;;;7.10;76.00;;;;;;5033052;28;20140;-50
2022/02/27 11:18:05;;;;;;;7.25;2.40;;;7.20;75.50;;;;;;5035340;28;20041;-49
2022/02/27 11:20:32;;;;;;;9.05;2.42;;;7.20;75.80;;;;;;5035176;28;20037;-54
2022/02/27 11:22:59;;;;;;;10.73;2.72;;;7.20;75.30;;;;;;5041893;28;20038;-50
2022/02/27 11:25:26;;;;;;;9.50;2.50;;;7.20;75.40;;;;;;5035255;28;20511;-53
2022/02/27 11:27:52;;;;;;;12.88;2.63;;;7.30;74.50;;;;;;5033162;28;20527;-51
2022/02/27 11:30:19;;;;;;;8.77;2.45;;;7.30;73.60;;;;;;5035128;28;20064;-44
2022/02/27 11:32:46;;;;;;;13.95;2.25;;;7.30;73.70;;;;;;5035060;28;20050;-54
2022/02/27 11:35:14;;;;;;;9.57;2.92;;;7.30;74.80;;;;;;5035151;28;20461;-47
2022/02/27 11:37:41;;;;;;;10.35;2.72;;;7.30;74.70;;;;;;5034878;28;20037;-51
2022/02/27 11:42:53;;;;;;;10.77;2.55;;;7.40;73.90;;;;;;5048519;28;20094;-47
2022/02/27 11:45:20;;;;;;;10.38;2.35;;;7.50;71.60;;;;;;5054155;28;20045;-50
2022/02/27 11:47:48;;;;;;;7.28;2.40;;;7.60;72.80;;;;;;5052353;28;20454;-48
2022/02/27 11:50:17;;;;;;;8.75;2.63;;;7.60;73.40;;;;;;5053937;28;20044;-49
2022/02/27 11:52:44;;;;;;;7.68;2.58;;;7.70;72.80;;;;;;5053697;28;20049;-49
2022/02/27 11:55:11;;;;;;;7.22;2.20;;;7.70;72.30;;;;;;5040399;28;20037;-51
2022/02/27 11:57:38;;;;;;;10.40;2.33;;;7.70;71.10;;;;;;5034823;28;20049;-50
2022/02/27 12:00:05;;;;;;;7.38;2.20;;;7.80;72.40;;;;;;5034665;28;20045;-48
2022/02/27 12:02:32;;;;;;;10.88;2.17;;;7.80;71.50;;;;;;5034826;28;20045;-50
2022/02/27 12:04:59;;;;;;;7.55;2.42;;;7.80;68.30;;;;;;5028099;28;20041;-51
2022/02/27 12:07:27;;;;;;;7.65;2.17;;;7.90;68.80;;;;;;5027736;28;20046;-53
2022/02/27 12:09:54;;;;;;;6.18;2.40;;;7.90;68.30;;;;;;5047384;28;20059;-56
2022/02/27 12:12:21;;;;;;;5.10;2.00;;;8.00;66.70;;;;;;5028057;28;20124;-49
2022/02/27 12:14:48;;;;;;;8.18;2.40;;;8.10;66.60;;;;;;5053814;28;20052;-46
2022/02/27 12:17:15;;;;;;;7.78;2.63;;;8.10;67.60;;;;;;5049659;28;20756;-45
2022/02/27 12:19:43;;;;;;;7.03;2.70;;;8.20;67.40;;;;;;5034193;28;20059;-50
2022/02/27 12:22:10;;;;;;;5.85;2.83;;;8.20;67.10;;;;;;5046748;28;20045;-51
2022/02/27 12:24:37;;;;;;;10.70;2.30;;;8.20;66.80;;;;;;5053279;28;20387;-51
2022/02/27 12:27:03;;;;;;;10.82;2.50;;;8.30;65.80;;;;;;5053325;28;20430;-47
2022/02/27 12:29:32;;;;;;;6.82;2.22;;;8.30;66.80;;;;;;5053021;28;20091;-50
2022/02/27 12:31:59;;;;;;;9.32;2.83;;;8.30;66.70;;;;;;5040762;28;20045;-52
2022/02/27 12:34:26;;;;;;;7.47;2.17;;;8.30;66.20;;;;;;5033843;28;20048;-45
2022/02/27 12:36:54;;;;;;;6.18;2.35;;;8.40;65.50;;;;;;5033739;28;20067;-54
2022/02/27 12:39:21;;;;;;;10.05;3.05;;;8.30;66.90;;;;;;5033557;28;20047;-54
2022/02/27 12:41:48;;;;;;;9.32;2.30;;;8.40;67.40;;;;;;5033798;28;20042;-50
2022/02/27 12:44:15;;;;;;;12.75;3.10;;;8.40;68.20;;;;;;5033739;28;20038;-47
2022/02/27 12:46:42;;;;;;;6.03;2.20;;;8.50;67.50;;;;;;5033753;28;20041;-49
2022/02/27 12:51:57;;;;;;;8.40;2.58;;;8.50;66.50;;;;;;5033688;28;20042;-53
2022/02/27 12:54:27;;;;;;;9.90;2.95;;;8.50;68.30;;;;;;5033738;28;20053;-51
2022/02/27 12:56:55;;;;;;;7.53;2.70;;;8.50;68.00;;;;;;5033289;28;20041;-48
2022/02/27 12:59:21;;;;;;;9.82;2.55;;;8.50;65.90;;;;;;5033236;28;20038;-52
2022/02/27 13:01:48;;;;;;;7.88;2.25;;;8.60;66.40;;;;;;5033063;28;20045;-56
2022/02/27 13:04:15;;;;;;;7.15;2.33;;;8.60;63.80;;;;;;5033153;28;20037;-56
2022/02/27 13:06:42;;;;;;;9.57;2.72;;;8.60;63.80;;;;;;5052126;28;20047;-46
2022/02/27 13:09:09;;;;;;;12.20;3.00;;;8.60;64.80;;;;;;5052500;28;20063;-46
2022/02/27 13:11:36;;;;;;;12.15;3.00;;;8.70;65.00;;;;;;5052588;28;20041;-54
2022/02/27 13:14:02;;;;;;;8.43;2.30;;;8.70;66.20;;;;;;5052437;28;20549;-49
2022/02/27 13:16:30;;;;;;;7.72;2.75;;;8.70;65.70;;;;;;5038328;28;20045;-56
2022/02/27 13:19:01;;;;;;;5.75;2.17;;;8.80;65.90;;;;;;5033199;28;20037;-55
2022/02/27 13:21:28;;;;;;;11.77;2.67;;;8.80;64.20;;;;;;5033384;28;20041;-53
2022/02/27 13:23:54;;;;;;;8.20;2.40;;;8.80;64.00;;;;;;5047555;28;20064;-44
2022/02/27 13:26:21;;;;;;;9.52;2.40;;;8.80;63.70;;;;;;5051550;28;20033;-52
2022/02/27 13:28:48;;;;;;;5.25;2.30;;;8.80;62.80;;;;;;5032506;28;20037;-53
2022/02/27 13:31:16;;;;;;;7.60;2.70;;;8.80;63.30;;;;;;5033557;28;20054;-52
2022/02/27 13:33:42;;;;;;;7.78;2.40;;;8.80;65.40;;;;;;5034357;28;20380;-47
2022/02/27 13:36:13;;;;;;;9.27;2.42;;;8.80;64.60;;;;;;5032788;28;20033;-51
2022/02/27 13:38:40;;;;;;;8.93;2.53;;;8.90;65.00;;;;;;5033544;28;20488;-53
2022/02/27 13:41:07;;;;;;;7.47;2.53;;;8.90;65.30;;;;;;5033490;28;20033;-57
2022/02/27 13:43:33;;;;;;;5.90;2.08;;;8.90;65.50;;;;;;5033450;28;20038;-54
2022/02/27 13:46:00;;;;;;;7.93;2.70;;;8.90;67.20;;;;;;5033328;28;20089;-56
2022/02/27 13:48:27;;;;;;;7.00;2.50;;;8.90;66.70;;;;;;5033696;28;20124;-50
2022/02/27 13:50:54;;;;;;;11.50;2.47;;;8.80;67.70;;;;;;5033504;28;20076;-55
2022/02/27 13:53:21;;;;;;;7.70;2.80;;;8.90;66.40;;;;;;5033229;28;20045;-46
2022/02/27 13:55:48;;;;;;;7.88;2.65;;;8.90;65.70;;;;;;5033230;28;20068;-55
2022/02/27 13:58:14;;;;;;;9.00;2.65;;;8.90;65.10;;;;;;5030018;28;20056;-48
2022/02/27 14:00:42;;;;;;;9.95;3.00;;;8.90;64.60;;;;;;5035779;28;20049;-47
2022/02/27 14:03:09;;;;;;;6.00;2.50;;;8.90;64.90;;;;;;5034350;28;20116;-54
2022/02/27 14:05:37;;;;;;;8.38;2.55;;;8.90;65.10;;;;;;5039086;28;20072;-42
2022/02/27 14:08:05;;;;;;;6.68;2.30;;;8.90;65.80;;;;;;5040061;28;20037;-49
2022/02/27 14:10:32;;;;;;;7.32;2.58;;;8.90;65.90;;;;;;5038321;28;20037;-49
2022/02/27 14:12:59;;;;;;;9.27;2.92;;;9.00;65.20;;;;;;5039705;28;20037;-53
2022/02/27 14:15:26;;;;;;;7.07;2.30;;;9.00;65.90;;;;;;5037650;28;20048;-49
2022/02/27 14:17:53;;;;;;;11.63;2.97;;;8.90;65.90;;;;;;5040539;28;20046;-52
2022/02/27 14:20:19;;;;;;;8.75;2.58;;;9.00;66.50;;;;;;5036702;28;20090;-50
2022/02/27 14:22:46;;;;;;;7.35;2.70;;;8.90;66.60;;;;;;5036523;28;20038;-53
2022/02/27 14:25:13;;;;;;;10.57;3.17;;;9.00;65.20;;;;;;5036493;28;20037;-48
2022/02/27 14:27:40;;;;;;;9.23;3.03;;;8.90;65.20;;;;;;5036078;28;20052;-50
2022/02/27 14:30:07;;;;;;;6.85;2.55;;;9.00;65.20;;;;;;5054639;28;20128;-47
2022/02/27 14:32:33;;;;;;;7.68;2.65;;;9.00;64.70;;;;;;5055514;28;20055;-52
2022/02/27 14:35:01;;;;;;;11.48;2.72;;;9.00;64.40;;;;;;5055243;28;20052;-48
2022/02/27 14:37:28;;;;;;;12.35;2.60;;;9.00;63.90;;;;;;5055285;28;20086;-48
2022/02/27 14:39:55;;;;;;;7.82;2.88;;;9.00;64.10;;;;;;5055098;28;20045;-47
2022/02/27 14:42:22;;;;;;;9.68;3.40;;;9.00;63.70;;;;;;5043981;28;20049;-49
2022/02/27 14:44:52;;;;;;;11.43;3.00;;;9.10;64.40;;;;;;5037139;28;20100;-47
2022/02/27 14:47:18;;;;;;;7.00;2.45;;;9.10;65.20;;;;;;5036082;28;20091;-52
2022/02/27 14:49:45;;;;;;;9.93;3.10;;;9.10;64.70;;;;;;5053824;28;20041;-52
2022/02/27 14:52:12;;;;;;;9.25;3.17;;;9.00;64.00;;;;;;5037109;28;20346;-54
2022/02/27 14:54:40;;;;;;;8.73;2.80;;;9.00;64.50;;;;;;5035989;28;20045;-51
2022/02/27 14:57:07;;;;;;;8.77;2.90;;;8.90;65.30;;;;;;5035603;28;20100;-53
2022/02/27 14:59:34;;;;;;;9.38;2.83;;;8.90;65.30;;;;;;5035689;28;20048;-51
2022/02/27 15:02:01;;;;;;;8.95;2.88;;;8.90;65.70;;;;;;5035716;28;20045;-52
2022/02/27 15:04:28;;;;;;;15.88;3.00;;;8.90;66.20;;;;;;5038182;28;20073;-49
2022/02/27 15:06:56;;;;;;;9.05;2.92;;;8.90;66.20;;;;;;5035573;28;20074;-54
2022/02/27 15:09:23;;;;;;;8.68;2.70;;;8.90;67.20;;;;;;5035598;28;20116;-52
2022/02/27 15:11:50;;;;;;;10.68;2.83;;;8.90;66.60;;;;;;5035421;28;20061;-49
2022/02/27 15:14:17;;;;;;;10.38;2.95;;;8.80;67.00;;;;;;5053083;28;20033;-52
2022/02/27 15:16:45;;;;;;;10.07;2.90;;;8.80;67.40;;;;;;5049374;28;20053;-49
2022/02/27 15:19:12;;;;;;;12.38;3.17;;;8.80;67.60;;;;;;5035492;28;20037;-47
2022/02/27 15:21:38;;;;;;;10.52;2.70;;;8.80;68.20;;;;;;5035211;28;20041;-48
2022/02/27 15:24:05;;;;;;;7.82;2.90;;;8.70;68.10;;;;;;5034899;28;20099;-47
2022/02/27 15:26:32;;;;;;;8.35;3.05;;;8.70;68.80;;;;;;5034031;28;20045;-50
2022/02/27 15:29:01;;;;;;;8.27;3.20;;;8.70;68.70;;;;;;5045934;28;20048;-54
2022/02/27 15:31:28;;;;;;;12.70;2.92;;;8.70;69.10;;;;;;5054046;28;20519;-49
2022/02/27 15:33:55;;;;;;;8.98;3.20;;;8.70;69.00;;;;;;5036980;28;20052;-47
2022/02/27 15:36:22;;;;;;;11.60;3.00;;;8.60;68.70;;;;;;5052485;28;20045;-51
2022/02/27 15:38:48;;;;;;;11.60;3.38;;;8.60;69.00;;;;;;5053467;28;20041;-52
2022/02/27 15:41:15;;;;;;;11.00;3.67;;;8.60;68.80;;;;;;5051821;28;20097;-53
2022/02/27 15:43:42;;;;;;;11.80;3.90;;;8.60;70.00;;;;;;5052185;28;20116;-51
2022/02/27 15:46:09;;;;;;;10.75;2.90;;;8.60;69.60;;;;;;5052422;28;20037;-49
2022/02/27 15:48:36;;;;;;;12.23;3.67;;;8.60;69.80;;;;;;5051828;28;20053;-48
2022/02/27 15:51:03;;;;;;;8.23;3.10;;;8.50;70.50;;;;;;5051843;28;20081;-54
2022/02/27 15:53:29;;;;;;;10.13;3.30;;;8.50;69.80;;;;;;5047395;28;20041;-51
2022/02/27 15:55:56;;;;;;;11.50;3.60;;;8.50;70.20;;;;;;5050593;28;20075;-52
2022/02/27 15:58:24;;;;;;;12.30;3.13;;;8.50;70.20;;;;;;5052740;28;20076;-50
2022/02/27 16:00:50;;;;;;;9.02;3.55;;;8.50;70.00;;;;;;5053526;28;20239;-53
2022/02/27 16:03:17;;;;;;;9.65;3.63;;;8.40;69.90;;;;;;5053560;28;20083;-51
2022/02/27 16:05:44;;;;;;;8.40;3.42;;;8.50;70.00;;;;;;5053618;28;20033;-52
2022/02/27 16:08:11;;;;;;;8.40;3.08;;;8.40;70.50;;;;;;5053641;28;20602;-50
2022/02/27 16:10:38;;;;;;;9.45;2.85;;;8.40;69.90;;;;;;5053346;28;20041;-46
2022/02/27 16:13:12;;;;;;;7.25;3.05;;;8.30;69.60;;;;;;5053428;28;20048;-47
2022/02/27 16:15:39;;;;;;;8.70;3.05;;;8.30;69.50;;;;;;5053263;28;20043;-45
2022/02/27 16:18:06;;;;;;;10.30;3.10;;;8.20;69.40;;;;;;5053222;28;20132;-46
2022/02/27 16:20:33;;;;;;;10.10;2.85;;;8.20;69.70;;;;;;5053279;28;20051;-46
2022/02/27 16:23:00;;;;;;;9.20;3.03;;;8.20;70.10;;;;;;5052602;28;20484;-49
2022/02/27 16:25:27;;;;;;;6.68;2.97;;;8.10;70.00;;;;;;5033673;28;20404;-54
2022/02/27 16:27:53;;;;;;;8.00;2.88;;;8.10;70.00;;;;;;5034068;28;20041;-53
2022/02/27 16:30:20;;;;;;;10.48;3.30;;;8.10;71.10;;;;;;5034382;28;20041;-46
2022/02/27 16:32:47;;;;;;;8.02;3.13;;;8.00;70.70;;;;;;5034068;28;20047;-54
2022/02/27 16:35:14;;;;;;;14.02;3.30;;;8.00;70.60;;;;;;5033887;28;20088;-46
2022/02/27 16:37:46;;;;;;;9.23;3.65;;;8.00;70.50;;;;;;5033736;28;20041;-51
2022/02/27 16:40:14;;;;;;;7.35;2.95;;;7.90;70.60;;;;;;5033706;28;20040;-49
2022/02/27 16:42:41;;;;;;;8.20;2.92;;;7.90;70.10;;;;;;5033661;28;20049;-46
2022/02/27 16:45:08;;;;;;;7.00;3.10;;;7.90;70.90;;;;;;5033706;28;20037;-47
2022/02/27 16:47:35;;;;;;;11.65;3.92;;;7.80;70.30;;;;;;5032657;28;20175;-51
2022/02/27 16:50:02;;;;;;;7.88;2.70;;;7.80;70.50;;;;;;5033618;28;20484;-46
2022/02/27 16:52:30;;;;;;;12.52;3.00;;;7.70;71.10;;;;;;5033664;28;20049;-50
2022/02/27 16:54:56;;;;;;;7.15;2.90;;;7.70;71.40;;;;;;5033579;28;20045;-50
2022/02/27 16:57:23;;;;;;;10.65;3.05;;;7.60;70.70;;;;;;5033372;28;20049;-52
2022/02/27 16:59:50;;;;;;;6.70;2.42;;;7.60;71.60;;;;;;5033593;28;20045;-47
2022/02/27 17:02:17;;;;;;;9.27;3.78;;;7.60;71.50;;;;;;5033510;28;20040;-51
2022/02/27 17:04:44;;;;;;;8.85;3.83;;;7.50;72.10;;;;;;5033425;28;20041;-51
2022/02/27 17:07:11;;;;;;;8.25;3.83;;;7.50;72.10;;;;;;5033558;28;20048;-50
2022/02/27 17:09:37;;;;;;;12.45;4.65;;;7.50;72.10;;;;;;5033373;28;20037;-49
2022/02/27 17:12:04;;;;;;;6.10;3.53;;;7.40;72.30;;;;;;5033296;28;20455;-55
2022/02/27 17:14:31;;;;;;;9.43;3.85;;;7.40;72.30;;;;;;5033350;28;20075;-45
2022/02/27 17:16:58;;;;;;;10.48;3.88;;;7.30;72.70;;;;;;5033187;28;20068;-52
2022/02/27 17:19:25;;;;;;;10.05;3.33;;;7.30;73.00;;;;;;5033244;28;20103;-50
2022/02/27 17:21:52;;;;;;;14.73;5.38;;;7.20;73.30;;;;;;5033308;28;20575;-48
2022/02/27 17:24:19;;;;;;;8.63;3.97;;;7.20;73.80;;;;;;5032972;28;20076;-48
2022/02/27 17:26:45;;;;;;;9.85;4.43;;;7.10;73.50;;;;;;5033162;28;20399;-48
2022/02/27 17:29:12;;;;;;;13.02;4.35;;;7.00;74.10;;;;;;5033351;28;20528;-52
2022/02/27 17:31:39;;;;;;;11.65;4.03;;;7.00;74.70;;;;;;5033473;28;20492;-47
2022/02/27 17:34:06;;;;;;;12.63;4.10;;;6.90;74.90;;;;;;5032672;28;20365;-46
2022/02/27 17:36:34;;;;;;;11.40;3.60;;;6.90;75.60;;;;;;5041638;28;20053;-48
2022/02/27 17:39:01;;;;;;;11.82;4.75;;;6.80;75.80;;;;;;5055546;28;20042;-54
2022/02/27 17:41:30;;;;;;;11.45;4.32;;;6.80;76.20;;;;;;5056400;28;20507;-50
2022/02/27 17:43:57;;;;;;;15.27;4.50;;;6.70;76.70;;;;;;5056448;28;20099;-48
2022/02/27 17:46:24;;;;;;;10.55;3.85;;;6.60;77.00;;;;;;5056297;28;20460;-51
2022/02/27 17:48:51;;;;;;;11.40;3.90;;;6.60;77.80;;;;;;5056312;28;20136;-48
2022/02/27 17:51:18;;;;;;;8.65;3.90;;;6.60;77.50;;;;;;5056149;28;20049;-55
2022/02/27 17:53:48;;;;;;;16.35;4.70;;;6.50;78.20;;;;;;5054951;28;20387;-48
2022/02/27 17:56:15;;;;;;;11.68;3.67;;;6.40;78.30;;;;;;5054820;28;20391;-45
2022/02/27 17:58:41;;;;;;;10.88;4.85;;;6.40;78.90;;;;;;5055884;28;20037;-51
2022/02/27 18:01:08;;;;;;;11.90;7.00;;;6.40;78.70;;;;;;5056169;28;20037;-45
2022/02/27 18:03:38;;;;;;;14.35;6.70;;;6.30;79.30;;;;;;5056155;28;20037;-50
2022/02/27 18:06:04;;;;;;;13.32;6.22;;;6.30;79.40;;;;;;5036339;28;20069;-49
2022/02/27 18:08:31;;;;;;;15.02;7.63;;;6.20;79.40;;;;;;5051255;28;20048;-49
2022/02/27 18:10:58;;;;;;;15.98;8.57;;;6.20;79.80;;;;;;5055651;28;20479;-51
2022/02/27 18:13:26;;;;;;;19.30;9.15;;;6.10;80.20;;;;;;5041119;28;20045;-51
2022/02/27 18:15:53;;;;;;;16.17;8.30;;;6.10;80.20;;;;;;5036633;28;20041;-50
2022/02/27 18:18:20;;;;;;;16.85;8.00;;;6.10;80.60;;;;;;5036312;28;20048;-56
2022/02/27 18:20:48;;;;;;;16.17;8.07;;;6.00;81.30;;;;;;5035748;28;20037;-50
2022/02/27 18:23:15;;;;;;;14.70;7.90;;;6.00;81.30;;;;;;5036532;28;20048;-51
2022/02/27 18:25:41;;;;;;;18.33;9.80;;;5.90;81.40;;;;;;5036565;28;20033;-50
2022/02/27 18:28:09;;;;;;;17.35;8.77;;;5.90;81.90;;;;;;5036413;28;20059;-51
2022/02/27 18:30:37;;;;;;;19.45;10.23;;;5.90;82.30;;;;;;5036174;28;20045;-53
2022/02/27 18:33:04;;;;;;;18.42;10.15;;;5.80;82.20;;;;;;5036391;28;20044;-51
2022/02/27 18:35:30;;;;;;;18.02;11.32;;;5.80;82.80;;;;;;5055327;28;20392;-51
2022/02/27 18:37:58;;;;;;;20.00;8.88;;;5.70;83.00;;;;;;5055253;28;20492;-44
2022/02/27 18:40:25;;;;;;;17.58;9.27;;;5.70;83.50;;;;;;5055112;28;20116;-57
2022/02/27 18:42:53;;;;;;;14.57;8.73;;;5.60;83.40;;;;;;5055240;28;20124;-53
2022/02/27 18:45:19;;;;;;;20.05;9.52;;;5.60;83.30;;;;;;5053929;28;20044;-52
2022/02/27 18:47:46;;;;;;;18.90;11.18;;;5.60;83.60;;;;;;5054988;28;20037;-54
2022/02/27 18:50:13;;;;;;;16.65;9.90;;;5.60;83.90;;;;;;5053432;28;20068;-52
2022/02/27 18:52:40;;;;;;;18.67;9.93;;;5.50;84.00;;;;;;5055262;28;20061;-52
2022/02/27 18:55:07;;;;;;;24.55;11.85;;;5.50;84.00;;;;;;5055109;28;20484;-52
2022/02/27 18:57:34;;;;;;;22.00;11.00;;;5.50;84.30;;;;;;5029313;28;20041;-52
2022/02/27 19:00:01;;;;;;;16.90;9.60;;;5.40;84.10;;;;;;5035688;28;20038;-50
2022/02/27 19:02:27;;;;;;;18.17;10.80;;;5.50;84.50;;;;;;5054182;28;20029;-47
2022/02/27 19:04:54;;;;;;;20.10;11.15;;;5.40;84.40;;;;;;5035576;28;20038;-50
2022/02/27 19:07:21;;;;;;;17.77;10.65;;;5.40;84.70;;;;;;5035588;28;20108;-50
2022/02/27 19:09:53;;;;;;;18.40;10.52;;;5.40;84.60;;;;;;5035351;28;20480;-53
2022/02/27 19:12:20;;;;;;;20.17;11.40;;;5.30;84.90;;;;;;5054810;28;20041;-46
2022/02/27 19:14:47;;;;;;;24.45;14.65;;;5.30;85.50;;;;;;5054798;28;20056;-51
2022/02/27 19:17:13;;;;;;;22.73;11.10;;;5.30;85.50;;;;;;5046193;28;20068;-53
2022/02/27 19:19:41;;;;;;;18.17;10.10;;;5.30;85.40;;;;;;5034310;28;20050;-52
2022/02/27 19:22:08;;;;;;;19.15;11.02;;;5.30;86.20;;;;;;5034671;28;20049;-51
2022/02/27 19:24:36;;;;;;;16.88;10.65;;;5.20;86.10;;;;;;5035138;28;20041;-46
2022/02/27 19:27:06;;;;;;;27.15;17.77;;;5.20;86.20;;;;;;5054573;28;20067;-48
2022/02/27 19:29:33;;;;;;;16.73;10.60;;;5.20;85.90;;;;;;5054421;28;20041;-55
2022/02/27 19:32:00;;;;;;;20.98;10.57;;;5.20;86.40;;;;;;5054263;28;20527;-51
2022/02/27 19:34:27;;;;;;;14.65;8.43;;;5.20;86.50;;;;;;5054291;28;20048;-45
2022/02/27 19:36:54;;;;;;;14.23;8.63;;;5.20;86.60;;;;;;5054269;28;20041;-51
2022/02/27 19:39:22;;;;;;;18.77;8.82;;;5.20;86.70;;;;;;5053876;28;20037;-48
2022/02/27 19:41:49;;;;;;;16.13;7.40;;;5.20;86.60;;;;;;5053937;28;20404;-50
2022/02/27 19:44:15;;;;;;;15.55;6.70;;;5.30;86.70;;;;;;5053990;28;20087;-53
2022/02/27 19:46:42;;;;;;;13.73;6.85;;;5.30;86.70;;;;;;5053901;28;20045;-49
2022/02/27 19:49:09;;;;;;;19.02;7.68;;;5.20;86.70;;;;;;5053960;28;20060;-52
2022/02/27 19:51:36;;;;;;;15.90;7.55;;;5.20;87.00;;;;;;5053765;28;20052;-44
2022/02/27 19:54:03;;;;;;;13.20;6.90;;;5.20;87.00;;;;;;5035424;28;20377;-53
2022/02/27 19:56:30;;;;;;;16.23;7.30;;;5.20;87.00;;;;;;5034719;28;20067;-50
2022/02/27 19:58:57;;;;;;;20.15;7.55;;;5.30;87.00;;;;;;5034488;28;20489;-44
2022/02/27 20:01:23;;;;;;;14.10;7.22;;;5.20;87.80;;;;;;5038524;28;20041;-45
2022/02/27 20:03:51;;;;;;;15.63;7.10;;;5.20;87.60;;;;;;5052624;28;20049;-48
2022/02/27 20:06:19;;;;;;;13.07;5.88;;;5.20;87.50;;;;;;5053636;28;20035;-46
2022/02/27 20:08:46;;;;;;;11.90;6.47;;;5.20;87.60;;;;;;5042480;28;20048;-51
2022/02/27 20:11:13;;;;;;;15.75;7.32;;;5.20;87.60;;;;;;5034569;28;20056;-50
2022/02/27 20:13:40;;;;;;;20.38;6.53;;;5.10;87.80;;;;;;5034368;28;20049;-48
2022/02/27 20:16:07;;;;;;;11.65;5.95;;;5.10;88.10;;;;;;5051654;28;20487;-50
2022/02/27 20:18:34;;;;;;;14.32;6.55;;;5.10;88.30;;;;;;5040730;28;20052;-50
2022/02/27 20:21:01;;;;;;;13.05;5.75;;;5.10;88.50;;;;;;5044820;28;20395;-53
2022/02/27 20:23:27;;;;;;;13.90;5.88;;;5.10;88.70;;;;;;5053525;28;20041;-51
2022/02/27 20:25:54;;;;;;;12.05;5.32;;;5.10;88.50;;;;;;5053059;28;20041;-53
2022/02/27 20:28:23;;;;;;;13.63;5.60;;;5.10;88.60;;;;;;5053166;28;20041;-53
2022/02/27 20:30:52;;;;;;;11.13;4.95;;;5.10;88.90;;;;;;5053146;28;20048;-48
2022/02/27 20:33:18;;;;;;;17.80;9.45;;;5.10;89.00;;;;;;5044547;28;20040;-48
2022/02/27 20:35:47;;;;;;;12.18;5.88;;;5.10;89.20;;;;;;5034053;28;20038;-50
2022/02/27 20:38:15;;;;;;;14.40;6.75;;;5.00;89.20;;;;;;5034013;28;20094;-45
2022/02/27 20:40:42;;;;;;;14.82;6.20;;;5.00;89.10;;;;;;5033811;28;20095;-50
2022/02/27 20:43:08;;;;;;;13.18;5.30;;;5.00;89.50;;;;;;5033726;28;20045;-52
2022/02/27 20:45:35;;;;;;;13.85;5.53;;;4.90;89.80;;;;;;5033702;28;20045;-55
2022/02/27 20:48:02;;;;;;;13.30;5.63;;;5.00;90.00;;;;;;5033202;28;20037;-47
2022/02/27 20:50:30;;;;;;;11.10;5.78;;;4.90;90.10;;;;;;5033784;28;20045;-55
2022/02/27 20:52:57;;;;;;;14.38;6.25;;;4.90;90.20;;;;;;5032953;28;20373;-53
2022/02/27 20:55:24;;;;;;;17.17;6.07;;;4.90;90.30;;;;;;5031458;28;20051;-53
2022/02/27 20:57:51;;;;;;;14.63;5.68;;;4.80;90.60;;;;;;5033664;28;20120;-52
2022/02/27 21:00:18;;;;;;;13.75;6.07;;;4.80;90.60;;;;;;5036035;28;20033;-56
2022/02/27 21:02:46;;;;;;;13.75;6.07;;;4.80;90.70;;;;;;5037381;28;20435;-50
2022/02/27 21:05:13;;;;;;;14.88;6.03;;;4.80;90.90;;;;;;5043137;28;20045;-44
2022/02/27 21:07:40;;;;;;;12.82;5.82;;;4.80;91.00;;;;;;5052601;28;20041;-47
2022/02/27 21:10:06;;;;;;;14.63;5.63;;;4.70;91.10;;;;;;5049890;28;20052;-46
2022/02/27 21:12:36;;;;;;;12.15;6.90;;;4.70;91.10;;;;;;5040113;28;20403;-50
2022/02/27 21:15:03;;;;;;;16.15;6.05;;;4.80;91.20;;;;;;5033244;28;20049;-50
2022/02/27 21:17:30;;;;;;;11.05;6.28;;;4.80;91.30;;;;;;5033341;28;20079;-52
2022/02/27 21:19:56;;;;;;;17.45;5.57;;;4.70;91.50;;;;;;5032700;28;20045;-46
2022/02/27 21:22:23;;;;;;;15.52;5.25;;;4.80;91.60;;;;;;5033447;28;20099;-48
2022/02/27 21:24:51;;;;;;;11.07;5.57;;;4.80;91.70;;;;;;5033648;28;20047;-53
2022/02/27 21:27:18;;;;;;;15.60;5.30;;;4.80;91.80;;;;;;5033208;28;20424;-51
2022/02/27 21:29:51;;;;;;;12.25;5.57;;;4.80;91.70;;;;;;5032833;28;20045;-55
2022/02/27 21:32:18;;;;;;;11.38;5.22;;;4.80;91.90;;;;;;5033466;28;20041;-51
2022/02/27 21:34:45;;;;;;;14.13;5.93;;;4.80;91.80;;;;;;5033262;28;20136;-49
2022/02/27 21:37:12;;;;;;;12.43;5.07;;;4.90;91.70;;;;;;5033150;28;20503;-50
2022/02/27 21:39:38;;;;;;;10.85;5.10;;;4.90;91.60;;;;;;5033034;28;20038;-49
2022/02/27 21:42:05;;;;;;;10.88;5.55;;;5.00;91.70;;;;;;5033088;28;20038;-55
2022/02/27 21:44:32;;;;;;;8.88;4.78;;;5.00;91.60;;;;;;5033024;28;20041;-55
2022/02/27 21:46:59;;;;;;;16.13;5.43;;;5.00;91.60;;;;;;5033027;28;20515;-48